createdAt,value
2022-08-25T00:03:19.641Z,5.80
2022-08-25T00:08:25.513Z,5.40
2022-08-25T00:13:29.810Z,6.30
2022-08-25T00:18:33.567Z,6.50
2022-08-25T00:23:36.877Z,6.60
2022-08-25T00:28:40.500Z,6.80
2022-08-25T00:33:45.322Z,6.50
2022-08-25T00:38:50.089Z,5.70
2022-08-25T00:43:59.439Z,5.30
2022-08-25T00:49:08.690Z,5.90
2022-08-25T00:54:23.778Z,5.50
2022-08-25T00:59:28.254Z,5.90
2022-08-25T01:04:32.138Z,5.70
2022-08-25T01:09:37.805Z,6.60
2022-08-25T01:14:41.628Z,5.60
2022-08-25T01:19:45.142Z,5.80
2022-08-25T01:24:59.821Z,5.90
2022-08-25T01:30:03.949Z,5.70
2022-08-25T01:35:07.712Z,5.90
2022-08-25T01:40:12.248Z,5.50
2022-08-25T01:45:15.827Z,5.40
2022-08-25T01:50:19.548Z,5.10
2022-08-25T01:55:23.269Z,4.80
2022-08-25T02:00:26.989Z,5.00
2022-08-25T02:05:30.305Z,4.80
2022-08-25T02:10:36.727Z,5.00
2022-08-25T02:15:50.029Z,5.30
2022-08-25T02:20:53.544Z,5.60
2022-08-25T02:25:57.570Z,5.00
2022-08-25T02:31:01.832Z,4.70
2022-08-25T02:36:05.831Z,5.60
2022-08-25T02:41:19.591Z,5.50
2022-08-25T02:46:25.168Z,5.20
2022-08-25T02:51:30.439Z,5.30
2022-08-25T02:56:34.229Z,5.10
2022-08-25T03:01:37.996Z,4.80
2022-08-25T03:06:41.365Z,5.20
2022-08-25T03:11:44.674Z,5.60
2022-08-25T03:16:48.079Z,5.70
2022-08-25T03:21:52.834Z,5.80
2022-08-25T03:26:56.281Z,6.20
2022-08-25T03:32:01.373Z,5.80
2022-08-25T03:37:06.284Z,5.90
2022-08-25T03:42:09.557Z,5.90
2022-08-25T03:47:13.050Z,6.30
2022-08-25T03:52:18.637Z,6.30
2022-08-25T03:57:21.886Z,6.60
2022-08-25T04:02:25.318Z,6.10
2022-08-25T04:07:29.080Z,6.20
2022-08-25T04:12:32.494Z,6.50
2022-08-25T04:17:40.228Z,6.80
2022-08-25T04:22:44.903Z,6.50
2022-08-25T04:27:48.573Z,6.80
2022-08-25T04:32:51.883Z,6.50
2022-08-25T04:37:55.192Z,6.00
2022-08-25T04:42:58.502Z,5.50
2022-08-25T04:48:02.421Z,5.90
2022-08-25T04:53:06.045Z,5.70
2022-08-25T04:58:14.916Z,6.00
2022-08-25T05:03:20.143Z,5.30
2022-08-25T05:08:23.767Z,4.50
2022-08-25T05:13:27.176Z,4.80
2022-08-25T05:18:32.362Z,5.30
2022-08-25T05:23:36.561Z,6.10
2022-08-25T05:28:43.942Z,6.50
2022-08-25T05:33:48.096Z,6.00
2022-08-25T05:38:51.470Z,6.00
2022-08-25T05:43:54.922Z,6.30
2022-08-25T05:48:58.234Z,5.60
2022-08-25T05:54:01.554Z,6.30
2022-08-25T05:59:09.271Z,5.60
2022-08-25T06:04:14.443Z,6.20
2022-08-25T06:09:17.831Z,6.10
2022-08-25T06:14:21.346Z,5.80
2022-08-25T06:19:24.657Z,5.40
2022-08-25T06:24:29.666Z,4.90
2022-08-25T06:29:33.220Z,5.30
2022-08-25T06:34:37.969Z,5.70
2022-08-25T06:39:43.086Z,5.60
2022-08-25T06:44:46.739Z,5.10
2022-08-25T06:49:50.459Z,4.70
2022-08-25T06:54:55.008Z,5.50
2022-08-25T06:59:58.308Z,5.30
2022-08-25T07:05:02.150Z,4.30
2022-08-25T07:10:07.883Z,4.30
2022-08-25T07:15:21.087Z,4.50
2022-08-25T07:25:35.703Z,4.70
2022-08-25T07:30:39.062Z,4.00
2022-08-25T07:35:43.813Z,4.20
2022-08-25T07:40:54.811Z,3.90
2022-08-25T07:46:00.674Z,3.80
2022-08-25T07:51:14.429Z,3.90
2022-08-25T07:56:18.369Z,4.70
2022-08-25T08:01:23.781Z,5.30
2022-08-25T08:06:27.120Z,4.70
2022-08-25T08:11:35.347Z,4.80
2022-08-25T08:16:40.652Z,4.00
2022-08-25T08:21:47.295Z,4.30
2022-08-25T08:26:58.802Z,4.30
2022-08-25T08:32:04.929Z,4.40
2022-08-25T08:37:10.527Z,4.10
2022-08-25T08:42:49.801Z,4.10
2022-08-25T08:48:03.657Z,3.80
2022-08-25T08:53:14.033Z,4.00
2022-08-25T08:58:26.231Z,3.70
2022-08-25T09:03:34.972Z,4.90
2022-08-25T09:08:44.572Z,4.20
2022-08-25T09:14:04.474Z,4.70
2022-08-25T09:19:23.356Z,4.70
2022-08-25T09:24:50.801Z,4.80
2022-08-25T09:30:07.804Z,4.60
2022-08-25T09:35:22.963Z,5.00
2022-08-25T09:40:29.115Z,4.90
2022-08-25T09:45:40.029Z,4.90
2022-08-25T09:50:46.877Z,4.80
2022-08-25T09:56:01.219Z,5.20
2022-08-25T10:01:16.662Z,4.10
2022-08-25T10:06:22.355Z,5.00
2022-08-25T10:11:40.679Z,4.60
2022-08-25T10:16:46.845Z,5.30
2022-08-25T10:22:20.990Z,5.30
2022-08-25T10:28:03.136Z,4.90
2022-08-25T10:33:18.506Z,4.90
2022-08-25T10:38:45.876Z,4.60
2022-08-25T10:44:49.708Z,4.80
2022-08-25T10:50:05.819Z,4.40
2022-08-25T10:55:49.834Z,5.30
2022-08-25T11:01:06.836Z,4.70
2022-08-25T11:06:20.090Z,4.70
2022-08-25T11:11:48.254Z,5.70
2022-08-25T11:17:19.405Z,5.00
2022-08-25T11:22:37.472Z,5.00
2022-08-25T11:28:04.572Z,5.50
2022-08-25T11:33:14.407Z,5.60
2022-08-25T11:38:49.051Z,4.80
2022-08-25T11:44:23.799Z,5.30
2022-08-25T11:49:57.023Z,5.20
2022-08-25T11:55:15.724Z,5.50
2022-08-25T12:00:41.421Z,5.30
2022-08-25T12:06:10.840Z,5.30
2022-08-25T12:11:48.916Z,6.00
2022-08-25T12:16:55.579Z,5.80
2022-08-25T12:22:22.831Z,6.20
2022-08-25T12:27:43.039Z,5.30
2022-08-25T12:33:11.965Z,5.30
2022-08-25T12:38:27.554Z,5.20
2022-08-25T12:43:40.614Z,5.20
2022-08-25T12:49:06.528Z,5.50
2022-08-25T12:54:42.505Z,5.00
2022-08-25T12:59:52.205Z,6.40
2022-08-25T13:05:41.454Z,5.40
2022-08-25T13:10:58.623Z,5.50
2022-08-25T13:16:06.719Z,5.20
2022-08-25T13:21:19.649Z,5.60
2022-08-25T13:26:33.391Z,6.00
2022-08-25T13:31:38.953Z,6.00
2022-08-25T13:37:07.328Z,5.90
2022-08-25T13:42:16.617Z,6.80
2022-08-25T13:47:43.627Z,5.80
2022-08-25T13:52:59.286Z,5.80
2022-08-25T13:58:04.514Z,6.00
2022-08-25T14:03:41.939Z,5.90
2022-08-25T14:09:15.559Z,5.40
2022-08-25T14:14:22.891Z,5.90
2022-08-25T14:19:27.313Z,5.50
2022-08-25T14:24:40.717Z,5.50
2022-08-25T14:29:44.380Z,5.50
2022-08-25T14:34:47.692Z,5.40
2022-08-25T14:39:52.158Z,6.10
2022-08-25T14:44:56.564Z,5.80
2022-08-25T14:50:01.515Z,6.30
2022-08-25T14:55:07.228Z,6.00
2022-08-25T15:00:13.155Z,6.70
2022-08-25T15:05:26.194Z,5.90
2022-08-25T15:10:29.503Z,5.50
2022-08-25T15:15:39.136Z,6.20
2022-08-25T15:20:56.503Z,6.20
2022-08-25T15:26:02.065Z,6.40
2022-08-25T15:31:09.560Z,5.60
2022-08-25T15:36:15.524Z,6.50
2022-08-25T15:41:19.964Z,5.80
2022-08-25T15:46:25.457Z,6.20
2022-08-25T15:51:30.011Z,5.50
2022-08-25T15:56:33.299Z,5.40
2022-08-25T16:01:37.609Z,6.00
2022-08-25T16:06:41.354Z,5.60
2022-08-25T16:11:45.175Z,6.00
2022-08-25T16:17:00.478Z,5.90
2022-08-25T16:22:03.982Z,6.30
2022-08-25T16:27:15.214Z,5.80
2022-08-25T16:32:19.338Z,6.40
2022-08-25T16:37:22.747Z,5.80
2022-08-25T16:42:27.550Z,5.70
2022-08-25T16:47:34.772Z,5.70
2022-08-25T16:52:58.245Z,8.60
2022-08-25T16:58:02.857Z,5.90
2022-08-25T17:03:09.074Z,6.00
2022-08-25T17:08:31.156Z,8.20
2022-08-25T17:18:39.093Z,7.70
2022-08-25T17:23:44.911Z,6.50
2022-08-25T17:28:48.156Z,9.40
2022-08-25T17:33:52.594Z,9.00
2022-08-25T17:38:56.845Z,6.00
2022-08-25T17:44:00.651Z,6.80
2022-08-25T17:49:05.931Z,5.80
2022-08-25T17:54:09.320Z,5.70
2022-08-25T17:59:12.630Z,6.00
2022-08-25T18:04:17.852Z,5.30
2022-08-25T18:09:21.400Z,6.30
2022-08-25T18:14:25.546Z,6.10
2022-08-25T18:19:29.252Z,6.70
2022-08-25T18:24:35.707Z,8.10
2022-08-25T18:29:39.150Z,7.40
2022-08-25T18:34:44.205Z,7.70
2022-08-25T18:40:08.158Z,6.90
2022-08-25T18:45:13.224Z,7.60
2022-08-25T18:50:17.482Z,9.00
2022-08-25T18:55:27.754Z,6.50
2022-08-25T19:00:32.503Z,5.90
2022-08-25T19:05:39.602Z,6.30
2022-08-25T19:10:51.072Z,7.20
2022-08-25T19:15:55.834Z,6.60
2022-08-25T19:21:04.649Z,5.80
2022-08-25T19:26:13.811Z,6.80
2022-08-25T19:31:33.298Z,6.50
2022-08-25T19:36:38.261Z,6.70
2022-08-25T19:41:44.892Z,5.90
2022-08-25T19:46:50.878Z,7.20
2022-08-25T19:51:57.679Z,6.40
2022-08-25T19:57:04.635Z,7.00
2022-08-25T20:02:28.223Z,6.80
2022-08-25T20:07:33.981Z,6.60
2022-08-25T20:12:37.400Z,6.60
2022-08-25T20:17:43.162Z,8.60
2022-08-25T20:22:50.003Z,8.00
2022-08-25T20:27:56.314Z,7.00
2022-08-25T20:33:01.266Z,7.50
2022-08-25T20:38:05.798Z,7.90
2022-08-25T20:43:10.500Z,7.10
2022-08-25T20:48:15.631Z,6.20
2022-08-25T20:53:18.962Z,6.80
2022-08-25T20:58:29.059Z,6.80
2022-08-25T21:03:32.533Z,6.30
2022-08-25T21:08:46.614Z,6.60
2022-08-25T21:13:50.303Z,6.40
2022-08-25T21:18:53.715Z,7.50
2022-08-25T21:23:57.233Z,8.60
2022-08-25T21:29:03.828Z,9.40
2022-08-25T21:34:07.645Z,8.10
2022-08-25T21:39:12.697Z,7.20
2022-08-25T21:44:16.621Z,7.90
2022-08-25T21:49:20.753Z,7.70
2022-08-25T21:54:24.261Z,8.30
2022-08-25T21:59:31.163Z,8.20
2022-08-25T22:04:35.394Z,8.20
2022-08-25T22:09:39.526Z,8.60
2022-08-25T22:14:43.520Z,9.40
2022-08-25T22:19:46.963Z,8.00
2022-08-25T22:24:50.888Z,7.90
2022-08-25T22:29:55.742Z,9.20
2022-08-25T22:34:59.766Z,8.20
2022-08-25T22:40:04.751Z,7.90
2022-08-25T22:45:09.247Z,8.40
2022-08-25T22:50:13.897Z,7.30
2022-08-25T22:55:21.985Z,7.40
2022-08-25T23:00:25.432Z,8.20
2022-08-25T23:05:29.764Z,7.90
2022-08-25T23:10:33.180Z,7.80
2022-08-25T23:15:36.386Z,7.70
2022-08-25T23:20:58.644Z,7.60
2022-08-25T23:26:05.576Z,9.00
2022-08-25T23:31:11.527Z,7.70
2022-08-25T23:36:16.301Z,8.30
2022-08-25T23:41:23.253Z,8.50
2022-08-25T23:46:29.219Z,7.90
2022-08-25T23:51:37.210Z,7.20
2022-08-25T23:56:44.816Z,8.00
